Time;durP1;ratioP1;P1;durP2;ratioP2;P2;SDS_P1;SDS_P2;PMS_P1;PMS_P2;Temp;Humidity;BMP_temperature;BMP_pressure;BME280_temperature;BME280_humidity;BME280_pressure;Samples;Min_cycle;Max_cycle;Signal;HPM_P1;HPM_P2
2022/12/12 00:00:31;;;;;;;32.60;15.07;;;;;;;;;;4898114;29;20035;-65
2022/12/12 00:02:57;;;;;;;35.13;16.77;;;;;;;;;;4898042;29;20123;-66
2022/12/12 00:05:23;;;;;;;32.70;16.30;;;;;;;;;;4899253;29;20044;-67
2022/12/12 00:07:48;;;;;;;29.67;14.50;;;;;;;;;;4899591;29;20040;-66
2022/12/12 00:10:14;;;;;;;30.45;14.38;;;;;;;;;;4899471;29;20494;-65
2022/12/12 00:12:40;;;;;;;30.73;14.20;;;;;;;;;;4897804;29;20068;-65
2022/12/12 00:15:05;;;;;;;28.33;13.80;;;;;;;;;;4899080;29;20108;-65
2022/12/12 00:17:31;;;;;;;32.05;14.25;;;;;;;;;;4897947;29;20037;-65
2022/12/12 00:19:56;;;;;;;29.27;13.85;;;;;;;;;;4898995;29;20048;-65
2022/12/12 00:22:22;;;;;;;28.52;14.15;;;;;;;;;;4899366;29;20120;-64
2022/12/12 00:24:47;;;;;;;28.02;14.05;;;;;;;;;;4913736;29;20052;-65
2022/12/12 00:27:13;;;;;;;28.80;13.93;;;;;;;;;;4897779;29;20063;-65
2022/12/12 00:29:38;;;;;;;24.08;12.60;;;;;;;;;;4913501;29;20064;-64
2022/12/12 00:32:04;;;;;;;27.33;14.07;;;;;;;;;;4899080;29;20041;-65
2022/12/12 00:34:29;;;;;;;26.20;12.73;;;;;;;;;;4897871;29;20061;-63
2022/12/12 00:36:55;;;;;;;26.20;13.50;;;;;;;;;;4897490;29;20052;-64
2022/12/12 00:39:21;;;;;;;23.60;12.82;;;;;;;;;;4913330;29;20032;-64
2022/12/12 00:41:47;;;;;;;29.17;13.02;;;;;;;;;;4897541;29;20051;-64
2022/12/12 00:44:12;;;;;;;26.65;13.13;;;;;;;;;;4913380;29;20425;-65
2022/12/12 00:46:38;;;;;;;27.38;12.75;;;;;;;;;;4897496;29;20045;-64
2022/12/12 00:49:04;;;;;;;27.77;13.00;;;;;;;;;;4913153;29;20037;-64
2022/12/12 00:51:29;;;;;;;27.00;12.88;;;;;;;;;;4897296;29;20044;-65
2022/12/12 00:53:58;;;;;;;25.48;12.25;;;;;;;;;;4897261;29;20040;-65
2022/12/12 00:56:24;;;;;;;26.73;12.30;;;;;;;;;;4898650;29;20496;-65
2022/12/12 00:58:50;;;;;;;22.83;11.32;;;;;;;;;;4898697;29;20036;-66
2022/12/12 01:01:18;;;;;;;20.42;10.88;;;;;;;;;;4898487;29;20052;-66
2022/12/12 01:03:44;;;;;;;27.05;12.02;;;;;;;;;;4896718;29;20584;-66
2022/12/12 01:06:10;;;;;;;22.55;10.70;;;;;;;;;;4912672;29;20091;-64
2022/12/12 01:08:36;;;;;;;23.67;11.23;;;;;;;;;;4897014;29;20060;-66
2022/12/12 01:11:02;;;;;;;21.77;10.77;;;;;;;;;;4896984;29;20516;-64
2022/12/12 01:13:28;;;;;;;21.65;10.98;;;;;;;;;;4896752;29;20151;-63
2022/12/12 01:15:53;;;;;;;20.08;9.23;;;;;;;;;;4896951;29;20079;-65
2022/12/12 01:18:19;;;;;;;23.45;11.35;;;;;;;;;;4897071;29;20036;-64
2022/12/12 01:20:44;;;;;;;21.73;10.52;;;;;;;;;;4912563;29;20068;-65
2022/12/12 01:23:10;;;;;;;18.85;9.77;;;;;;;;;;4897933;29;20510;-64
2022/12/12 01:25:35;;;;;;;19.70;9.68;;;;;;;;;;4897854;29;20601;-65
2022/12/12 01:28:01;;;;;;;18.63;9.18;;;;;;;;;;4898122;29;20045;-65
2022/12/12 01:30:27;;;;;;;17.95;9.65;;;;;;;;;;4896660;29;20533;-65
2022/12/12 01:32:53;;;;;;;15.70;9.32;;;;;;;;;;4912509;29;20044;-65
2022/12/12 01:35:20;;;;;;;19.48;10.00;;;;;;;;;;4896774;29;20040;-64
2022/12/12 01:37:48;;;;;;;17.48;9.18;;;;;;;;;;4898129;29;20071;-65
2022/12/12 01:40:23;;;;;;;18.73;9.73;;;;;;;;;;4896412;29;20044;-64
2022/12/12 01:42:49;;;;;;;18.55;9.95;;;;;;;;;;4898230;29;20359;-64
2022/12/12 01:45:33;;;;;;;17.55;9.30;;;;;;;;;;4897790;29;20199;-66
2022/12/12 01:47:59;;;;;;;20.42;9.13;;;;;;;;;;4897527;29;20036;-65
2022/12/12 01:50:24;;;;;;;19.30;9.13;;;;;;;;;;4898015;29;20138;-64
2022/12/12 01:52:50;;;;;;;19.77;9.02;;;;;;;;;;4912071;29;20442;-65
2022/12/12 01:55:18;;;;;;;22.45;8.80;;;;;;;;;;4897715;29;20041;-64
2022/12/12 01:57:45;;;;;;;14.85;8.60;;;;;;;;;;4897812;29;20164;-64
2022/12/12 02:00:11;;;;;;;17.48;8.85;;;;;;;;;;4911736;29;20529;-67
2022/12/12 02:02:38;;;;;;;18.20;9.90;;;;;;;;;;4897675;29;20134;-64
2022/12/12 02:05:06;;;;;;;18.05;8.68;;;;;;;;;;4897344;29;20052;-65
2022/12/12 02:07:32;;;;;;;19.40;9.25;;;;;;;;;;4897532;29;20055;-65
2022/12/12 02:09:57;;;;;;;15.82;9.05;;;;;;;;;;4911564;29;20494;-66
2022/12/12 02:12:23;;;;;;;20.73;8.77;;;;;;;;;;4895755;29;20096;-65
2022/12/12 02:14:49;;;;;;;17.08;9.10;;;;;;;;;;4897138;29;20070;-65
2022/12/12 02:17:21;;;;;;;14.02;8.70;;;;;;;;;;4911103;29;20662;-66
2022/12/12 02:20:05;;;;;;;17.15;8.90;;;;;;;;;;4911785;29;20119;-65
2022/12/12 02:22:50;;;;;;;20.40;9.23;;;;;;;;;;4895831;29;20041;-65
2022/12/12 02:25:47;;;;;;;15.93;8.90;;;;;;;;;;4896921;29;20104;-65
2022/12/12 02:28:13;;;;;;;15.18;8.40;;;;;;;;;;4884919;29;20048;-65
2022/12/12 02:30:38;;;;;;;15.32;8.02;;;;;;;;;;4911587;29;20384;-64
2022/12/12 02:33:04;;;;;;;19.13;8.32;;;;;;;;;;4896944;29;20517;-65
2022/12/12 02:35:59;;;;;;;15.20;8.48;;;;;;;;;;4895423;29;20043;-65
2022/12/12 02:38:24;;;;;;;15.73;8.32;;;;;;;;;;4878178;29;20076;-64
2022/12/12 02:41:12;;;;;;;14.90;7.53;;;;;;;;;;4896856;29;20080;-64
2022/12/12 02:43:48;;;;;;;11.55;6.68;;;;;;;;;;4879909;29;20068;-65
2022/12/12 02:46:43;;;;;;;11.90;7.07;;;;;;;;;;4895385;29;20044;-62
2022/12/12 02:49:12;;;;;;;13.77;7.47;;;;;;;;;;4895360;29;20592;-64
2022/12/12 02:51:38;;;;;;;14.95;8.25;;;;;;;;;;4896735;29;20184;-63
2022/12/12 02:54:04;;;;;;;13.75;7.22;;;;;;;;;;4896688;29;20119;-64
2022/12/12 02:56:48;;;;;;;15.65;7.60;;;;;;;;;;4895396;29;20036;-64
2022/12/12 02:59:34;;;;;;;15.27;7.72;;;;;;;;;;4895316;29;20036;-63
2022/12/12 03:02:05;;;;;;;16.33;7.75;;;;;;;;;;4895226;29;20041;-65
2022/12/12 03:07:47;;;;;;;12.00;7.00;;;;;;;;;;4895236;29;20044;-64
2022/12/12 03:10:26;;;;;;;13.32;6.97;;;;;;;;;;4897021;29;20512;-64
2022/12/12 03:12:59;;;;;;;15.23;6.63;;;;;;;;;;4895005;29;20422;-63
2022/12/12 03:15:34;;;;;;;12.45;6.80;;;;;;;;;;4911157;29;20044;-65
2022/12/12 03:18:08;;;;;;;10.35;6.72;;;;;;;;;;4894966;29;20543;-65
2022/12/12 03:20:52;;;;;;;13.15;7.05;;;;;;;;;;4910809;29;20507;-64
2022/12/12 03:23:23;;;;;;;11.80;6.63;;;;;;;;;;4910867;29;20044;-63
2022/12/12 03:25:48;;;;;;;13.00;7.55;;;;;;;;;;4910657;29;20056;-64
2022/12/12 03:28:21;;;;;;;13.95;6.47;;;;;;;;;;4913772;29;20388;-64
2022/12/12 03:30:48;;;;;;;13.88;6.82;;;;;;;;;;4914635;29;20055;-64
2022/12/12 03:33:13;;;;;;;12.82;6.70;;;;;;;;;;4914592;29;20520;-62
2022/12/12 03:35:43;;;;;;;10.88;6.18;;;;;;;;;;4898589;29;20052;-64
2022/12/12 03:38:15;;;;;;;10.93;6.43;;;;;;;;;;4899925;29;20303;-63
2022/12/12 03:41:07;;;;;;;13.13;6.22;;;;;;;;;;4914371;29;20040;-64
2022/12/12 03:44:11;;;;;;;18.73;7.32;;;;;;;;;;4898661;29;20440;-63
2022/12/12 03:46:58;;;;;;;10.45;6.53;;;;;;;;;;4862971;29;20081;-64
2022/12/12 03:49:35;;;;;;;10.27;6.05;;;;;;;;;;4878692;29;20052;-64
2022/12/12 03:52:03;;;;;;;12.30;6.47;;;;;;;;;;4893123;29;20041;-65
2022/12/12 03:54:36;;;;;;;13.48;7.53;;;;;;;;;;4898317;29;20036;-63
2022/12/12 03:57:12;;;;;;;10.13;5.55;;;;;;;;;;4914282;29;20048;-64
2022/12/12 03:59:40;;;;;;;10.38;6.28;;;;;;;;;;4882705;29;20140;-63
2022/12/12 04:02:11;;;;;;;10.38;5.82;;;;;;;;;;4899674;29;20427;-63
2022/12/12 04:04:52;;;;;;;11.70;6.50;;;;;;;;;;4899213;29;20059;-64
2022/12/12 04:07:29;;;;;;;14.82;6.07;;;;;;;;;;4914021;29;20052;-64
2022/12/12 04:12:59;;;;;;;9.85;5.63;;;;;;;;;;4880525;29;20056;-66
2022/12/12 04:15:31;;;;;;;10.30;5.90;;;;;;;;;;4898334;29;20402;-64
2022/12/12 04:18:01;;;;;;;11.80;6.65;;;;;;;;;;4898088;29;20083;-64
2022/12/12 04:23:28;;;;;;;9.23;5.95;;;;;;;;;;4897786;29;20045;-65
2022/12/12 04:28:43;;;;;;;9.52;5.40;;;;;;;;;;4913771;29;20048;-63
2022/12/12 04:31:10;;;;;;;13.68;6.38;;;;;;;;;;4913664;29;20577;-64
2022/12/12 04:33:41;;;;;;;10.00;6.28;;;;;;;;;;4898012;29;20063;-64
2022/12/12 04:36:12;;;;;;;9.25;5.95;;;;;;;;;;4897970;29;20044;-64
2022/12/12 04:38:39;;;;;;;11.35;6.82;;;;;;;;;;4913382;29;20036;-63
2022/12/12 04:41:06;;;;;;;10.88;6.20;;;;;;;;;;4898308;29;20048;-64
2022/12/12 04:43:32;;;;;;;12.45;5.90;;;;;;;;;;4899410;29;20037;-66
2022/12/12 04:46:00;;;;;;;11.20;6.57;;;;;;;;;;4898443;29;20421;-64
2022/12/12 04:48:45;;;;;;;9.15;5.97;;;;;;;;;;4897655;29;20056;-64
2022/12/12 04:51:14;;;;;;;13.75;6.20;;;;;;;;;;4899412;29;20131;-64
2022/12/12 04:53:43;;;;;;;10.30;5.80;;;;;;;;;;4899496;29;20060;-66
2022/12/12 04:56:10;;;;;;;10.55;5.68;;;;;;;;;;4900340;29;20061;-64
2022/12/12 04:58:39;;;;;;;12.60;5.90;;;;;;;;;;4915184;29;20075;-65
2022/12/12 05:01:05;;;;;;;10.65;5.60;;;;;;;;;;4898344;29;20044;-64
2022/12/12 05:03:36;;;;;;;11.23;6.53;;;;;;;;;;4913620;29;20080;-65
2022/12/12 05:06:11;;;;;;;14.25;5.82;;;;;;;;;;4897257;29;20254;-65
2022/12/12 05:08:40;;;;;;;10.85;6.55;;;;;;;;;;4913635;29;20048;-65
2022/12/12 05:11:06;;;;;;;11.02;6.60;;;;;;;;;;4896876;29;20045;-64
2022/12/12 05:13:36;;;;;;;10.07;6.25;;;;;;;;;;4898250;29;20084;-64
2022/12/12 05:16:05;;;;;;;9.70;6.40;;;;;;;;;;4898119;29;20037;-65
2022/12/12 05:18:31;;;;;;;11.32;6.85;;;;;;;;;;4898118;29;20040;-65
2022/12/12 05:20:56;;;;;;;9.95;6.32;;;;;;;;;;4897892;29;20526;-65
2022/12/12 05:23:22;;;;;;;12.77;7.10;;;;;;;;;;4912427;29;20409;-62
2022/12/12 05:25:47;;;;;;;11.80;6.50;;;;;;;;;;4897851;29;20418;-64
2022/12/12 05:28:13;;;;;;;13.30;7.13;;;;;;;;;;4897945;29;20032;-68
2022/12/12 05:30:38;;;;;;;14.70;8.02;;;;;;;;;;4896493;29;20483;-71
2022/12/12 05:33:04;;;;;;;13.00;6.70;;;;;;;;;;4896290;29;20049;-62
2022/12/12 05:35:29;;;;;;;10.80;6.45;;;;;;;;;;4897811;29;20044;-65
2022/12/12 05:37:55;;;;;;;9.55;6.07;;;;;;;;;;4896399;29;20044;-65
2022/12/12 05:40:22;;;;;;;9.20;6.28;;;;;;;;;;4911838;29;20036;-65
2022/12/12 05:42:47;;;;;;;11.18;6.75;;;;;;;;;;4896525;29;20096;-64
2022/12/12 05:45:13;;;;;;;9.30;6.30;;;;;;;;;;4896260;29;20053;-64
2022/12/12 05:47:38;;;;;;;11.18;6.75;;;;;;;;;;4880954;29;20039;-63
2022/12/12 05:50:05;;;;;;;11.55;6.57;;;;;;;;;;4911534;29;20048;-61
2022/12/12 05:52:30;;;;;;;10.10;6.75;;;;;;;;;;4891020;29;20151;-63
2022/12/12 05:54:56;;;;;;;11.32;6.88;;;;;;;;;;4907706;29;20554;-63
2022/12/12 05:57:23;;;;;;;15.18;7.18;;;;;;;;;;4889562;29;20045;-61
2022/12/12 05:59:48;;;;;;;11.13;6.15;;;;;;;;;;4892696;29;20119;-62
2022/12/12 06:02:15;;;;;;;10.35;6.70;;;;;;;;;;4893749;29;20526;-62
2022/12/12 06:04:41;;;;;;;10.55;6.15;;;;;;;;;;4893954;29;20143;-61
2022/12/12 06:07:07;;;;;;;11.07;6.78;;;;;;;;;;4892489;29;20579;-63
2022/12/12 06:09:32;;;;;;;11.32;6.05;;;;;;;;;;4907369;29;20411;-63
2022/12/12 06:11:58;;;;;;;12.73;6.25;;;;;;;;;;4893088;29;20044;-63
2022/12/12 06:14:24;;;;;;;8.98;5.75;;;;;;;;;;4892775;29;20463;-62
2022/12/12 06:16:49;;;;;;;10.90;6.25;;;;;;;;;;4893105;29;20180;-62
2022/12/12 06:19:16;;;;;;;10.18;6.32;;;;;;;;;;4906852;29;20127;-62
2022/12/12 06:21:42;;;;;;;9.55;5.65;;;;;;;;;;4891642;29;20505;-62
2022/12/12 06:24:08;;;;;;;10.45;5.57;;;;;;;;;;4893910;29;20082;-63
2022/12/12 06:26:33;;;;;;;8.88;5.13;;;;;;;;;;4877911;29;20071;-62
2022/12/12 06:28:59;;;;;;;7.15;5.25;;;;;;;;;;4893019;29;20036;-62
2022/12/12 06:31:26;;;;;;;7.93;5.15;;;;;;;;;;4894911;29;20045;-61
2022/12/12 06:33:51;;;;;;;9.18;5.30;;;;;;;;;;4895461;29;20046;-62
2022/12/12 06:36:22;;;;;;;8.43;5.20;;;;;;;;;;4895230;29;20107;-62
2022/12/12 06:39:06;;;;;;;9.02;5.05;;;;;;;;;;4893787;29;20040;-61
2022/12/12 06:41:32;;;;;;;10.85;5.32;;;;;;;;;;4891964;29;20043;-63
2022/12/12 06:43:58;;;;;;;10.80;6.05;;;;;;;;;;4891521;29;20040;-63
2022/12/12 06:46:24;;;;;;;7.10;4.82;;;;;;;;;;4894032;29;20113;-62
2022/12/12 06:48:50;;;;;;;7.95;5.00;;;;;;;;;;4893629;29;20037;-64
2022/12/12 06:51:19;;;;;;;8.77;5.13;;;;;;;;;;4909133;29;20124;-69
2022/12/12 06:53:44;;;;;;;8.93;5.57;;;;;;;;;;4892662;29;20507;-61
2022/12/12 06:56:15;;;;;;;8.57;5.10;;;;;;;;;;4907435;29;20083;-62
2022/12/12 06:58:40;;;;;;;6.88;4.47;;;;;;;;;;4910198;29;20455;-62
2022/12/12 07:01:06;;;;;;;7.13;5.07;;;;;;;;;;4910026;29;20064;-64
2022/12/12 07:03:36;;;;;;;8.82;5.28;;;;;;;;;;4892448;29;20070;-67
2022/12/12 07:06:03;;;;;;;10.30;6.40;;;;;;;;;;4893286;29;20064;-66
2022/12/12 07:08:29;;;;;;;11.30;5.18;;;;;;;;;;4892619;29;20040;-64
2022/12/12 07:10:55;;;;;;;10.68;5.65;;;;;;;;;;4907048;29;20043;-65
2022/12/12 07:13:24;;;;;;;7.22;5.32;;;;;;;;;;4907790;29;20068;-63
2022/12/12 07:15:54;;;;;;;7.83;5.27;;;;;;;;;;4891274;29;20073;-63
2022/12/12 07:18:19;;;;;;;11.23;5.10;;;;;;;;;;4909471;29;20287;-61
2022/12/12 07:20:46;;;;;;;7.82;4.55;;;;;;;;;;4908503;29;20036;-65
2022/12/12 07:23:11;;;;;;;7.80;5.20;;;;;;;;;;4905293;29;20032;-64
2022/12/12 07:25:59;;;;;;;6.60;4.50;;;;;;;;;;4892900;29;20045;-66
2022/12/12 07:28:30;;;;;;;8.20;5.00;;;;;;;;;;4875159;29;20036;-63
2022/12/12 07:30:55;;;;;;;9.40;5.18;;;;;;;;;;4891054;29;20099;-63
2022/12/12 07:33:21;;;;;;;9.30;5.55;;;;;;;;;;4907417;29;20045;-64
2022/12/12 07:35:47;;;;;;;8.10;5.40;;;;;;;;;;4907585;29;20044;-64
2022/12/12 07:38:12;;;;;;;7.75;5.40;;;;;;;;;;4907245;29;20032;-63
2022/12/12 07:40:38;;;;;;;10.63;5.95;;;;;;;;;;4893099;29;20040;-63
2022/12/12 07:43:05;;;;;;;8.95;5.63;;;;;;;;;;4906685;29;20048;-64
2022/12/12 07:45:31;;;;;;;10.00;6.13;;;;;;;;;;4908027;29;20052;-63
2022/12/12 07:47:57;;;;;;;8.23;6.03;;;;;;;;;;4892053;29;20052;-64
2022/12/12 07:50:22;;;;;;;12.82;7.10;;;;;;;;;;4893779;29;20088;-64
2022/12/12 07:52:48;;;;;;;11.40;6.70;;;;;;;;;;4893492;29;20506;-62
2022/12/12 07:55:13;;;;;;;13.68;7.10;;;;;;;;;;4893032;29;20434;-63
2022/12/12 07:57:40;;;;;;;12.38;7.57;;;;;;;;;;4908154;29;20096;-63
2022/12/12 08:00:07;;;;;;;11.88;7.25;;;;;;;;;;4893040;29;20029;-63
2022/12/12 08:02:38;;;;;;;14.13;7.13;;;;;;;;;;4909451;29;20040;-66
2022/12/12 08:05:03;;;;;;;12.43;7.57;;;;;;;;;;4909597;29;20049;-64
2022/12/12 08:07:29;;;;;;;12.43;7.50;;;;;;;;;;4894634;29;20096;-65
2022/12/12 08:09:54;;;;;;;13.75;7.47;;;;;;;;;;4909350;29;20088;-64
2022/12/12 08:12:22;;;;;;;16.48;7.97;;;;;;;;;;4894467;29;20044;-65
2022/12/12 08:14:48;;;;;;;13.25;7.80;;;;;;;;;;4910944;29;20506;-65
2022/12/12 08:17:13;;;;;;;12.30;7.63;;;;;;;;;;4912255;29;20119;-67
2022/12/12 08:19:39;;;;;;;13.23;7.15;;;;;;;;;;4898634;29;20336;-63
2022/12/12 08:22:07;;;;;;;12.73;7.00;;;;;;;;;;4898651;29;20112;-63
2022/12/12 08:24:34;;;;;;;17.08;8.15;;;;;;;;;;4895927;29;20040;-63
2022/12/12 08:26:59;;;;;;;13.02;6.30;;;;;;;;;;4895490;29;20495;-64
2022/12/12 08:29:26;;;;;;;13.40;8.02;;;;;;;;;;4910054;29;20040;-63
2022/12/12 08:31:52;;;;;;;12.82;7.47;;;;;;;;;;4898180;29;20115;-64
2022/12/12 08:34:17;;;;;;;12.90;7.10;;;;;;;;;;4896312;29;20130;-63
2022/12/12 08:36:44;;;;;;;10.57;7.20;;;;;;;;;;4896224;29;20485;-62
2022/12/12 08:39:12;;;;;;;11.80;7.25;;;;;;;;;;4895926;29;20486;-64
2022/12/12 08:41:39;;;;;;;16.08;8.10;;;;;;;;;;4879443;29;20052;-65
2022/12/12 08:44:05;;;;;;;14.18;7.95;;;;;;;;;;4896123;29;20037;-63
2022/12/12 08:46:31;;;;;;;15.18;8.15;;;;;;;;;;4911441;29;20076;-67
2022/12/12 08:48:56;;;;;;;14.45;8.35;;;;;;;;;;4912373;29;20111;-65
2022/12/12 08:51:22;;;;;;;11.70;7.03;;;;;;;;;;4896890;29;20045;-64
2022/12/12 08:53:48;;;;;;;12.50;7.93;;;;;;;;;;4912232;29;20478;-64
2022/12/12 08:56:15;;;;;;;13.50;7.07;;;;;;;;;;4912480;29;20049;-64
2022/12/12 08:58:40;;;;;;;11.55;7.30;;;;;;;;;;4911579;29;20036;-65
2022/12/12 09:01:13;;;;;;;15.52;7.45;;;;;;;;;;4897923;29;20394;-64
2022/12/12 09:03:39;;;;;;;12.38;7.03;;;;;;;;;;4894955;29;20043;-65
2022/12/12 09:06:06;;;;;;;11.73;7.43;;;;;;;;;;4894667;29;20450;-66
2022/12/12 09:08:32;;;;;;;11.45;6.47;;;;;;;;;;4909758;29;20121;-67
2022/12/12 09:10:58;;;;;;;12.85;7.38;;;;;;;;;;4911041;29;20065;-64
2022/12/12 09:13:24;;;;;;;12.45;7.15;;;;;;;;;;4894837;29;20489;-67
2022/12/12 09:15:50;;;;;;;10.40;7.10;;;;;;;;;;4894327;29;20051;-64
2022/12/12 09:18:20;;;;;;;12.15;7.07;;;;;;;;;;4894797;29;20151;-66
2022/12/12 09:20:49;;;;;;;13.85;6.97;;;;;;;;;;4895563;29;20136;-65
2022/12/12 09:23:15;;;;;;;14.45;7.75;;;;;;;;;;4894884;29;20176;-67
2022/12/12 09:25:41;;;;;;;12.82;7.25;;;;;;;;;;4895362;29;20463;-66
2022/12/12 09:28:07;;;;;;;12.52;7.72;;;;;;;;;;4895710;29;20084;-66
2022/12/12 09:30:32;;;;;;;15.05;7.93;;;;;;;;;;4910127;29;20073;-69
2022/12/12 09:32:58;;;;;;;15.23;8.45;;;;;;;;;;4895928;29;20075;-70
2022/12/12 09:35:24;;;;;;;11.68;7.15;;;;;;;;;;4910651;29;20529;-70
2022/12/12 09:37:49;;;;;;;13.05;8.30;;;;;;;;;;4895221;29;20049;-70
2022/12/12 09:40:20;;;;;;;15.98;8.75;;;;;;;;;;4907948;29;20047;-69
2022/12/12 09:42:50;;;;;;;13.88;8.00;;;;;;;;;;4910313;29;20048;-68
2022/12/12 09:45:17;;;;;;;14.20;8.23;;;;;;;;;;4911151;29;20545;-68
2022/12/12 09:47:44;;;;;;;17.05;8.38;;;;;;;;;;4892406;29;20476;-66
2022/12/12 09:50:23;;;;;;;16.42;8.55;;;;;;;;;;4909375;29;20033;-67
2022/12/12 09:52:55;;;;;;;18.50;8.88;;;;;;;;;;4895455;29;20509;-68
2022/12/12 09:55:20;;;;;;;18.40;9.13;;;;;;;;;;4910126;29;20044;-66
2022/12/12 09:57:58;;;;;;;16.25;9.00;;;;;;;;;;4908753;29;20367;-67
2022/12/12 10:00:26;;;;;;;16.73;9.35;;;;;;;;;;4908694;29;20048;-64
2022/12/12 10:02:57;;;;;;;16.50;9.65;;;;;;;;;;4893197;29;20137;-68
2022/12/12 10:05:41;;;;;;;15.85;9.05;;;;;;;;;;4894776;29;20060;-64
2022/12/12 10:08:27;;;;;;;19.00;9.27;;;;;;;;;;4910212;29;20040;-65
2022/12/12 10:11:03;;;;;;;15.90;9.27;;;;;;;;;;4893657;29;20461;-62
2022/12/12 10:13:30;;;;;;;16.85;9.23;;;;;;;;;;4891635;29;20498;-64
2022/12/12 10:15:58;;;;;;;16.75;9.45;;;;;;;;;;4893682;29;20037;-63
2022/12/12 10:18:27;;;;;;;14.63;8.90;;;;;;;;;;4892602;29;20029;-64
2022/12/12 10:20:55;;;;;;;17.58;9.65;;;;;;;;;;4893974;29;20036;-65
2022/12/12 10:23:24;;;;;;;15.05;8.68;;;;;;;;;;4893520;29;20489;-66
2022/12/12 10:25:49;;;;;;;16.08;8.90;;;;;;;;;;4885889;29;20049;-62
2022/12/12 10:28:16;;;;;;;19.98;9.77;;;;;;;;;;4892730;29;20410;-65
2022/12/12 10:31:00;;;;;;;16.10;10.45;;;;;;;;;;4894996;29;20036;-65
2022/12/12 10:33:42;;;;;;;16.40;9.95;;;;;;;;;;4895461;29;20044;-63
2022/12/12 10:36:15;;;;;;;17.48;10.45;;;;;;;;;;4893324;29;20318;-65
2022/12/12 10:39:01;;;;;;;16.20;9.77;;;;;;;;;;4892582;29;20043;-64
2022/12/12 10:41:32;;;;;;;18.95;10.52;;;;;;;;;;4874396;29;20049;-64
2022/12/12 10:44:06;;;;;;;18.70;10.77;;;;;;;;;;4893074;29;20040;-64
2022/12/12 10:46:38;;;;;;;18.83;10.95;;;;;;;;;;4894483;29;20052;-65
2022/12/12 10:49:12;;;;;;;21.60;11.02;;;;;;;;;;4895380;29;20052;-64
2022/12/12 10:51:38;;;;;;;22.73;10.95;;;;;;;;;;4893624;29;20131;-64
2022/12/12 10:54:10;;;;;;;20.13;10.55;;;;;;;;;;4893090;29;20147;-64
2022/12/12 10:56:36;;;;;;;22.20;11.50;;;;;;;;;;4894335;29;20047;-63
2022/12/12 10:59:02;;;;;;;19.23;11.27;;;;;;;;;;4894721;29;20119;-65
2022/12/12 11:01:35;;;;;;;22.67;11.73;;;;;;;;;;4893622;29;20048;-65
2022/12/12 11:04:01;;;;;;;22.58;11.23;;;;;;;;;;4894246;29;20395;-67
2022/12/12 11:06:32;;;;;;;19.40;11.98;;;;;;;;;;4892867;29;20593;-66
2022/12/12 11:08:57;;;;;;;;;;;;;;;;;;4895500;29;20096;-69
2022/12/12 11:11:24;;;;;;;18.35;10.82;;;;;;;;;;4895234;29;19919;-71
2022/12/12 11:13:49;;;;;;;23.20;11.82;;;;;;;;;;4909764;29;20071;-67
2022/12/12 11:16:17;;;;;;;21.55;11.45;;;;;;;;;;4891933;29;20044;-67
2022/12/12 11:18:56;;;;;;;26.83;12.80;;;;;;;;;;4907800;29;20067;-67
2022/12/12 11:21:21;;;;;;;24.88;12.05;;;;;;;;;;4893149;29;20115;-67
2022/12/12 11:23:50;;;;;;;20.75;12.10;;;;;;;;;;4894510;29;20081;-67
2022/12/12 11:26:17;;;;;;;26.33;13.35;;;;;;;;;;4908135;29;20155;-65
2022/12/12 11:28:45;;;;;;;25.52;12.60;;;;;;;;;;4893063;29;20686;-66
2022/12/12 11:31:13;;;;;;;21.60;11.82;;;;;;;;;;4908771;29;20181;-67
2022/12/12 11:33:42;;;;;;;22.38;12.35;;;;;;;;;;4892493;29;20406;-67
2022/12/12 11:36:12;;;;;;;24.88;12.50;;;;;;;;;;4908166;29;20048;-66
2022/12/12 11:38:46;;;;;;;23.40;11.02;;;;;;;;;;4892471;29;20388;-66
2022/12/12 11:41:11;;;;;;;20.77;11.43;;;;;;;;;;4908749;29;20117;-66
2022/12/12 11:43:47;;;;;;;24.27;11.80;;;;;;;;;;4895309;29;20047;-66
2022/12/12 11:46:13;;;;;;;19.35;10.75;;;;;;;;;;4894899;29;20063;-66
2022/12/12 11:48:48;;;;;;;20.33;11.20;;;;;;;;;;4896088;29;20033;-67
2022/12/12 11:51:30;;;;;;;21.02;11.65;;;;;;;;;;4896491;29;20383;-67
2022/12/12 11:53:57;;;;;;;25.63;13.23;;;;;;;;;;4912919;29;20131;-65
2022/12/12 11:56:29;;;;;;;25.55;13.40;;;;;;;;;;4898898;29;20542;-66
2022/12/12 11:58:54;;;;;;;22.35;13.27;;;;;;;;;;4897697;29;20044;-66
2022/12/12 12:01:19;;;;;;;25.45;13.95;;;;;;;;;;4897456;29;20040;-65
2022/12/12 12:04:21;;;;;;;28.67;13.93;;;;;;;;;;4898670;29;20044;-66
2022/12/12 12:06:49;;;;;;;27.25;14.32;;;;;;;;;;4899625;29;20221;-64
2022/12/12 12:09:31;;;;;;;33.25;14.80;;;;;;;;;;4913088;29;20037;-64
2022/12/12 12:12:06;;;;;;;30.70;15.02;;;;;;;;;;4898063;29;20052;-66
2022/12/12 12:14:37;;;;;;;27.45;13.63;;;;;;;;;;4913739;29;20532;-64
2022/12/12 12:17:18;;;;;;;26.15;13.80;;;;;;;;;;4913683;29;20076;-65
2022/12/12 12:20:02;;;;;;;29.13;14.63;;;;;;;;;;4897433;29;20577;-65
2022/12/12 12:22:47;;;;;;;35.08;15.52;;;;;;;;;;4896696;29;20136;-67
2022/12/12 12:25:16;;;;;;;28.83;14.65;;;;;;;;;;4898119;29;20047;-69
2022/12/12 12:28:00;;;;;;;27.30;14.30;;;;;;;;;;4898639;29;20127;-67
2022/12/12 12:30:35;;;;;;;27.58;15.98;;;;;;;;;;4898813;29;20044;-68
2022/12/12 12:33:23;;;;;;;27.00;14.35;;;;;;;;;;4897302;29;20498;-67
2022/12/12 12:35:48;;;;;;;28.42;14.60;;;;;;;;;;4897575;29;20099;-67
2022/12/12 12:38:13;;;;;;;26.38;14.73;;;;;;;;;;4913203;29;20398;-67
2022/12/12 12:40:46;;;;;;;32.47;15.20;;;;;;;;;;4898549;29;20530;-69
2022/12/12 12:43:22;;;;;;;26.20;15.80;;;;;;;;;;4898432;29;20115;-68
2022/12/12 12:45:50;;;;;;;27.33;14.10;;;;;;;;;;4912713;29;20056;-67
2022/12/12 12:48:22;;;;;;;27.55;14.15;;;;;;;;;;4897158;29;20399;-67
2022/12/12 12:51:06;;;;;;;26.35;13.30;;;;;;;;;;4912921;29;20131;-67
2022/12/12 12:53:41;;;;;;;22.67;12.80;;;;;;;;;;4912698;29;20486;-68
2022/12/12 12:56:20;;;;;;;23.90;12.93;;;;;;;;;;4896863;29;20041;-68
2022/12/12 12:58:47;;;;;;;23.48;12.98;;;;;;;;;;4897208;29;20439;-68
2022/12/12 13:01:19;;;;;;;21.92;13.38;;;;;;;;;;4897409;29;20068;-66
2022/12/12 13:04:00;;;;;;;23.83;12.32;;;;;;;;;;4898461;29;20063;-70
2022/12/12 13:06:40;;;;;;;23.42;12.65;;;;;;;;;;4897058;29;20109;-67
2022/12/12 13:09:24;;;;;;;20.60;10.77;;;;;;;;;;4896639;29;20068;-71
2022/12/12 13:11:53;;;;;;;20.65;11.25;;;;;;;;;;4896578;29;20115;-71
2022/12/12 13:14:34;;;;;;;21.60;12.30;;;;;;;;;;4912448;29;20065;-70
2022/12/12 13:17:05;;;;;;;19.85;11.25;;;;;;;;;;4897850;29;20037;-71
2022/12/12 13:19:34;;;;;;;19.27;10.60;;;;;;;;;;4896507;29;20063;-72
2022/12/12 13:22:06;;;;;;;26.20;11.75;;;;;;;;;;4897533;29;20124;-71
2022/12/12 13:24:51;;;;;;;18.63;10.63;;;;;;;;;;4897908;29;20047;-71
2022/12/12 13:27:22;;;;;;;19.00;11.27;;;;;;;;;;4896290;29;20100;-71
2022/12/12 13:29:58;;;;;;;20.63;10.85;;;;;;;;;;4897597;29;20610;-72
2022/12/12 13:32:43;;;;;;;16.90;9.43;;;;;;;;;;4896472;29;20041;-71
2022/12/12 13:35:10;;;;;;;17.10;9.90;;;;;;;;;;4912139;29;20040;-72
2022/12/12 13:37:43;;;;;;;18.52;10.57;;;;;;;;;;4896314;29;20051;-73
2022/12/12 13:40:20;;;;;;;19.40;10.52;;;;;;;;;;4897413;29;20033;-72
2022/12/12 13:43:01;;;;;;;23.52;11.25;;;;;;;;;;4896538;29;20455;-73
2022/12/12 13:45:34;;;;;;;19.77;10.52;;;;;;;;;;4911426;29;20056;-73
2022/12/12 13:48:09;;;;;;;17.95;10.68;;;;;;;;;;4911701;29;20064;-72
2022/12/12 13:50:35;;;;;;;18.55;10.70;;;;;;;;;;4911543;29;20047;-73
2022/12/12 13:53:06;;;;;;;15.73;9.25;;;;;;;;;;4911639;29;20036;-69
2022/12/12 13:55:36;;;;;;;16.95;8.80;;;;;;;;;;4896175;29;20549;-72
2022/12/12 13:58:06;;;;;;;13.75;9.25;;;;;;;;;;4895938;29;20043;-71
2022/12/12 14:00:32;;;;;;;21.67;10.48;;;;;;;;;;4911705;29;20100;-71
2022/12/12 14:02:57;;;;;;;15.93;9.13;;;;;;;;;;4911609;29;20518;-70
2022/12/12 14:05:26;;;;;;;12.32;8.20;;;;;;;;;;4895549;29;20511;-71
2022/12/12 14:08:17;;;;;;;15.30;7.85;;;;;;;;;;4895748;29;20111;-71
2022/12/12 14:10:49;;;;;;;12.02;7.80;;;;;;;;;;4911351;29;20068;-71
2022/12/12 14:13:21;;;;;;;13.00;7.85;;;;;;;;;;4910681;29;20143;-72
2022/12/12 14:15:49;;;;;;;12.35;7.35;;;;;;;;;;4895613;29;20044;-71
2022/12/12 14:18:20;;;;;;;10.65;7.32;;;;;;;;;;4879994;29;20080;-72
2022/12/12 14:20:53;;;;;;;12.88;7.45;;;;;;;;;;4911175;29;20036;-70
2022/12/12 14:23:19;;;;;;;10.85;6.50;;;;;;;;;;4895334;29;20542;-70
2022/12/12 14:25:45;;;;;;;9.95;6.20;;;;;;;;;;4911335;29;20072;-71
2022/12/12 14:28:14;;;;;;;7.68;5.32;;;;;;;;;;4911197;29;20499;-71
2022/12/12 14:30:46;;;;;;;9.93;6.00;;;;;;;;;;4895461;29;20502;-71
2022/12/12 14:33:16;;;;;;;9.70;6.03;;;;;;;;;;4880089;29;20049;-72
2022/12/12 14:36:00;;;;;;;8.07;5.35;;;;;;;;;;4880681;29;20047;-69
2022/12/12 14:38:45;;;;;;;8.80;5.55;;;;;;;;;;4896408;29;20107;-69
2022/12/12 14:41:16;;;;;;;9.40;6.22;;;;;;;;;;4895111;29;20044;-68
2022/12/12 14:43:47;;;;;;;7.47;5.05;;;;;;;;;;4895219;29;20028;-64
2022/12/12 14:46:15;;;;;;;8.75;5.90;;;;;;;;;;4910755;29;20052;-67
2022/12/12 14:48:40;;;;;;;9.77;5.55;;;;;;;;;;4895088;29;20028;-68
2022/12/12 14:51:10;;;;;;;9.90;5.35;;;;;;;;;;4910692;29;20621;-67
2022/12/12 14:53:36;;;;;;;;;;;;;;;;;;4879969;29;20104;-72
2022/12/12 14:56:10;;;;;;;7.60;4.35;;;;;;;;;;4907159;29;20342;-69